sensor_id;sensor_type;location;lat;lon;timestamp;pressure;altitude;pressure_sealevel;temperature;humidity
64354;BME280;50681;53.334;-6.536;2023-04-05T00:00:30;101156.59;;;13.38;100.00
64354;BME280;50681;53.334;-6.536;2023-04-05T00:03:00;101121.66;;;13.36;100.00
64354;BME280;50681;53.334;-6.536;2023-04-05T00:05:31;101175.56;;;13.62;100.00
64354;BME280;50681;53.334;-6.536;2023-04-05T00:08:05;101170.78;;;13.54;100.00
64354;BME280;50681;53.334;-6.536;2023-04-05T00:10:37;101159.63;;;13.17;100.00
64354;BME280;50681;53.334;-6.536;2023-04-05T00:13:08;101139.25;;;13.20;100.00
64354;BME280;50681;53.334;-6.536;2023-04-05T00:15:34;101152.06;;;13.33;100.00
64354;BME280;50681;53.334;-6.536;2023-04-05T00:18:04;101174.41;;;13.25;100.00
64354;BME280;50681;53.334;-6.536;2023-04-05T00:20:30;101163.59;;;13.44;100.00
64354;BME280;50681;53.334;-6.536;2023-04-05T00:22:59;101164.22;;;13.36;100.00
64354;BME280;50681;53.334;-6.536;2023-04-05T00:25:27;101148.28;;;13.53;100.00
64354;BME280;50681;53.334;-6.536;2023-04-05T00:27:56;101150.97;;;13.34;100.00
64354;BME280;50681;53.334;-6.536;2023-04-05T00:30:21;101122.25;;;13.33;100.00
64354;BME280;50681;53.334;-6.536;2023-04-05T00:32:48;101130.66;;;13.32;100.00
64354;BME280;50681;53.334;-6.536;2023-04-05T00:35:16;101131.41;;;13.37;100.00
64354;BME280;50681;53.334;-6.536;2023-04-05T00:37:42;101123.28;;;13.18;100.00
64354;BME280;50681;53.334;-6.536;2023-04-05T00:40:10;101132.22;;;13.57;100.00
64354;BME280;50681;53.334;-6.536;2023-04-05T00:42:35;101122.97;;;13.39;100.00
64354;BME280;50681;53.334;-6.536;2023-04-05T00:45:00;101120.91;;;13.12;100.00
64354;BME280;50681;53.334;-6.536;2023-04-05T00:47:27;101128.41;;;13.20;100.00
64354;BME280;50681;53.334;-6.536;2023-04-05T00:49:52;101123.66;;;13.50;100.00
64354;BME280;50681;53.334;-6.536;2023-04-05T00:52:21;101124.22;;;13.66;100.00
64354;BME280;50681;53.334;-6.536;2023-04-05T00:54:48;101113.31;;;13.52;100.00
64354;BME280;50681;53.334;-6.536;2023-04-05T00:57:16;101106.47;;;13.55;100.00
64354;BME280;50681;53.334;-6.536;2023-04-05T00:59:42;101118.41;;;13.73;100.00
64354;BME280;50681;53.334;-6.536;2023-04-05T01:02:12;101119.09;;;13.64;100.00
64354;BME280;50681;53.334;-6.536;2023-04-05T01:04:43;101098.41;;;13.49;100.00
64354;BME280;50681;53.334;-6.536;2023-04-05T01:10:08;101116.97;;;13.61;100.00
64354;BME280;50681;53.334;-6.536;2023-04-05T01:12:37;101091.09;;;13.50;100.00
64354;BME280;50681;53.334;-6.536;2023-04-05T01:15:03;101102.75;;;13.31;100.00
64354;BME280;50681;53.334;-6.536;2023-04-05T01:17:30;101099.66;;;13.38;100.00
64354;BME280;50681;53.334;-6.536;2023-04-05T01:20:02;101110.59;;;13.52;100.00
64354;BME280;50681;53.334;-6.536;2023-04-05T01:31:36;101091.69;;;13.47;100.00
64354;BME280;50681;53.334;-6.536;2023-04-05T01:34:25;101106.19;;;13.56;100.00
64354;BME280;50681;53.334;-6.536;2023-04-05T01:37:02;101105.69;;;13.54;100.00
64354;BME280;50681;53.334;-6.536;2023-04-05T01:39:30;101096.72;;;13.34;100.00
64354;BME280;50681;53.334;-6.536;2023-04-05T01:42:00;101096.22;;;13.51;100.00
64354;BME280;50681;53.334;-6.536;2023-04-05T01:44:26;101105.25;;;13.47;100.00
64354;BME280;50681;53.334;-6.536;2023-04-05T01:46:52;101103.25;;;13.52;100.00
64354;BME280;50681;53.334;-6.536;2023-04-05T01:49:18;101083.31;;;13.43;100.00
64354;BME280;50681;53.334;-6.536;2023-04-05T01:51:43;101057.66;;;13.35;100.00
64354;BME280;50681;53.334;-6.536;2023-04-05T01:54:08;101069.16;;;13.65;100.00
64354;BME280;50681;53.334;-6.536;2023-04-05T01:56:34;101067.69;;;13.54;100.00
64354;BME280;50681;53.334;-6.536;2023-04-05T01:59:00;101073.50;;;13.47;100.00
64354;BME280;50681;53.334;-6.536;2023-04-05T02:01:25;101093.81;;;13.50;100.00
64354;BME280;50681;53.334;-6.536;2023-04-05T02:03:51;101078.25;;;13.36;100.00
64354;BME280;50681;53.334;-6.536;2023-04-05T02:06:16;101066.53;;;13.60;100.00
64354;BME280;50681;53.334;-6.536;2023-04-05T02:08:42;101059.13;;;13.47;100.00
64354;BME280;50681;53.334;-6.536;2023-04-05T02:11:07;101068.06;;;13.47;100.00
64354;BME280;50681;53.334;-6.536;2023-04-05T02:13:33;101058.91;;;13.24;100.00
64354;BME280;50681;53.334;-6.536;2023-04-05T02:15:58;101069.75;;;13.43;100.00
64354;BME280;50681;53.334;-6.536;2023-04-05T02:18:23;101058.63;;;13.45;100.00
64354;BME280;50681;53.334;-6.536;2023-04-05T02:21:00;101068.88;;;13.48;100.00
64354;BME280;50681;53.334;-6.536;2023-04-05T02:23:25;101053.47;;;13.43;100.00
64354;BME280;50681;53.334;-6.536;2023-04-05T02:25:52;101067.28;;;13.47;100.00
64354;BME280;50681;53.334;-6.536;2023-04-05T02:28:17;101048.09;;;13.38;100.00
64354;BME280;50681;53.334;-6.536;2023-04-05T02:30:43;101061.13;;;13.74;100.00
64354;BME280;50681;53.334;-6.536;2023-04-05T02:33:08;101040.69;;;13.63;100.00
64354;BME280;50681;53.334;-6.536;2023-04-05T02:35:36;101050.31;;;13.55;100.00
64354;BME280;50681;53.334;-6.536;2023-04-05T02:38:02;101045.78;;;13.50;100.00
64354;BME280;50681;53.334;-6.536;2023-04-05T02:40:28;101032.75;;;13.33;100.00
64354;BME280;50681;53.334;-6.536;2023-04-05T02:42:54;101058.88;;;13.62;100.00
64354;BME280;50681;53.334;-6.536;2023-04-05T02:45:19;101045.50;;;13.66;100.00
64354;BME280;50681;53.334;-6.536;2023-04-05T02:47:45;101031.84;;;13.57;100.00
64354;BME280;50681;53.334;-6.536;2023-04-05T02:50:10;101022.19;;;13.51;100.00
64354;BME280;50681;53.334;-6.536;2023-04-05T02:52:36;101031.84;;;13.57;100.00
64354;BME280;50681;53.334;-6.536;2023-04-05T02:55:05;101043.53;;;13.86;100.00
64354;BME280;50681;53.334;-6.536;2023-04-05T02:57:31;101005.09;;;13.31;100.00
64354;BME280;50681;53.334;-6.536;2023-04-05T02:59:57;101000.06;;;13.58;100.00
64354;BME280;50681;53.334;-6.536;2023-04-05T03:02:22;101000.81;;;13.63;100.00
64354;BME280;50681;53.334;-6.536;2023-04-05T03:04:50;101014.69;;;13.76;100.00
64354;BME280;50681;53.334;-6.536;2023-04-05T03:07:17;101003.59;;;13.58;100.00
64354;BME280;50681;53.334;-6.536;2023-04-05T03:09:46;100998.81;;;13.83;100.00
64354;BME280;50681;53.334;-6.536;2023-04-05T03:12:11;101021.88;;;13.52;100.00
64354;BME280;50681;53.334;-6.536;2023-04-05T03:14:38;101014.59;;;13.81;100.00
64354;BME280;50681;53.334;-6.536;2023-04-05T03:17:04;101005.63;;;13.66;100.00
64354;BME280;50681;53.334;-6.536;2023-04-05T03:19:30;101010.59;;;13.92;100.00
64354;BME280;50681;53.334;-6.536;2023-04-05T03:21:56;101009.13;;;13.67;100.00
64354;BME280;50681;53.334;-6.536;2023-04-05T03:24:22;100992.44;;;13.60;100.00
64354;BME280;50681;53.334;-6.536;2023-04-05T03:26:48;100995.47;;;13.58;100.00
64354;BME280;50681;53.334;-6.536;2023-04-05T03:29:15;101002.63;;;13.82;100.00
64354;BME280;50681;53.334;-6.536;2023-04-05T03:31:40;100987.00;;;13.60;100.00
64354;BME280;50681;53.334;-6.536;2023-04-05T03:34:06;100997.41;;;13.72;100.00
64354;BME280;50681;53.334;-6.536;2023-04-05T03:36:31;100995.06;;;13.65;100.00
64354;BME280;50681;53.334;-6.536;2023-04-05T03:39:11;101002.09;;;13.66;100.00
64354;BME280;50681;53.334;-6.536;2023-04-05T03:41:37;100997.41;;;13.86;100.00
64354;BME280;50681;53.334;-6.536;2023-04-05T03:44:03;100997.81;;;13.79;100.00
64354;BME280;50681;53.334;-6.536;2023-04-05T03:46:29;101009.34;;;13.71;100.00
64354;BME280;50681;53.334;-6.536;2023-04-05T03:48:55;100991.28;;;13.80;100.00
64354;BME280;50681;53.334;-6.536;2023-04-05T03:51:21;100993.69;;;13.67;100.00
64354;BME280;50681;53.334;-6.536;2023-04-05T03:53:46;100985.63;;;13.62;100.00
64354;BME280;50681;53.334;-6.536;2023-04-05T03:56:12;100990.03;;;13.58;100.00
64354;BME280;50681;53.334;-6.536;2023-04-05T03:58:37;100972.66;;;13.73;100.00
64354;BME280;50681;53.334;-6.536;2023-04-05T04:01:03;101000.72;;;13.69;100.00
64354;BME280;50681;53.334;-6.536;2023-04-05T04:03:28;100974.34;;;13.55;100.00
64354;BME280;50681;53.334;-6.536;2023-04-05T04:05:55;100997.00;;;13.64;100.00
64354;BME280;50681;53.334;-6.536;2023-04-05T04:08:21;100972.25;;;13.66;100.00
64354;BME280;50681;53.334;-6.536;2023-04-05T04:10:47;100972.47;;;13.70;100.00
64354;BME280;50681;53.334;-6.536;2023-04-05T04:13:12;100986.63;;;13.66;100.00
64354;BME280;50681;53.334;-6.536;2023-04-05T04:15:38;100991.38;;;13.75;100.00
64354;BME280;50681;53.334;-6.536;2023-04-05T04:18:03;100969.16;;;13.73;100.00
64354;BME280;50681;53.334;-6.536;2023-04-05T04:20:29;100981.53;;;13.79;100.00
64354;BME280;50681;53.334;-6.536;2023-04-05T04:22:56;100968.25;;;13.63;100.00
64354;BME280;50681;53.334;-6.536;2023-04-05T04:25:22;100968.03;;;13.60;100.00
64354;BME280;50681;53.334;-6.536;2023-04-05T04:27:47;100974.06;;;13.71;100.00
64354;BME280;50681;53.334;-6.536;2023-04-05T04:30:14;100982.72;;;13.73;100.00
64354;BME280;50681;53.334;-6.536;2023-04-05T04:32:41;100967.66;;;13.66;100.00
64354;BME280;50681;53.334;-6.536;2023-04-05T04:35:22;100961.31;;;13.71;100.00
64354;BME280;50681;53.334;-6.536;2023-04-05T04:38:02;100976.09;;;13.79;100.00
64354;BME280;50681;53.334;-6.536;2023-04-05T04:40:38;100953.44;;;13.56;100.00
64354;BME280;50681;53.334;-6.536;2023-04-05T04:43:11;100970.94;;;13.63;100.00
64354;BME280;50681;53.334;-6.536;2023-04-05T04:45:47;100964.69;;;13.49;100.00
64354;BME280;50681;53.334;-6.536;2023-04-05T04:48:15;100953.06;;;13.62;100.00
64354;BME280;50681;53.334;-6.536;2023-04-05T04:50:42;100968.13;;;13.55;100.00
64354;BME280;50681;53.334;-6.536;2023-04-05T04:53:11;100956.06;;;13.47;100.00
64354;BME280;50681;53.334;-6.536;2023-04-05T04:55:40;100968.34;;;13.58;100.00
64354;BME280;50681;53.334;-6.536;2023-04-05T04:58:11;100961.22;;;13.62;100.00
64354;BME280;50681;53.334;-6.536;2023-04-05T05:00:38;100943.88;;;13.44;100.00
64354;BME280;50681;53.334;-6.536;2023-04-05T05:03:07;100935.38;;;13.51;100.00
64354;BME280;50681;53.334;-6.536;2023-04-05T05:05:40;100926.63;;;13.54;100.00
64354;BME280;50681;53.334;-6.536;2023-04-05T05:08:06;100931.66;;;13.47;100.00
64354;BME280;50681;53.334;-6.536;2023-04-05T05:10:32;100931.88;;;13.64;100.00
64354;BME280;50681;53.334;-6.536;2023-04-05T05:12:57;100940.97;;;13.55;100.00
64354;BME280;50681;53.334;-6.536;2023-04-05T05:15:22;100942.53;;;13.75;100.00
64354;BME280;50681;53.334;-6.536;2023-04-05T05:17:48;100930.56;;;13.76;100.00
64354;BME280;50681;53.334;-6.536;2023-04-05T05:20:17;100949.06;;;13.74;100.00
64354;BME280;50681;53.334;-6.536;2023-04-05T05:22:42;100928.44;;;13.73;100.00
64354;BME280;50681;53.334;-6.536;2023-04-05T05:25:08;100930.56;;;13.76;100.00
64354;BME280;50681;53.334;-6.536;2023-04-05T05:27:36;100948.88;;;13.84;100.00
64354;BME280;50681;53.334;-6.536;2023-04-05T05:30:03;100923.22;;;13.76;100.00
64354;BME280;50681;53.334;-6.536;2023-04-05T05:32:28;100943.22;;;13.94;100.00
64354;BME280;50681;53.334;-6.536;2023-04-05T05:34:54;100920.22;;;13.78;100.00
64354;BME280;50681;53.334;-6.536;2023-04-05T05:37:21;100918.00;;;13.80;100.00
64354;BME280;50681;53.334;-6.536;2023-04-05T05:39:53;100939.50;;;13.90;100.00
64354;BME280;50681;53.334;-6.536;2023-04-05T05:42:18;100924.84;;;13.63;100.00
64354;BME280;50681;53.334;-6.536;2023-04-05T05:44:45;100923.81;;;13.73;100.00
64354;BME280;50681;53.334;-6.536;2023-04-05T05:47:10;100926.84;;;13.72;100.00
64354;BME280;50681;53.334;-6.536;2023-04-05T05:49:36;100940.41;;;13.72;100.00
64354;BME280;50681;53.334;-6.536;2023-04-05T05:52:02;100937.69;;;14.00;100.00
64354;BME280;50681;53.334;-6.536;2023-04-05T05:54:28;100933.16;;;13.95;100.00
64354;BME280;50681;53.334;-6.536;2023-04-05T05:56:53;100924.13;;;14.00;100.00
64354;BME280;50681;53.334;-6.536;2023-04-05T05:59:21;100944.31;;;14.07;100.00
64354;BME280;50681;53.334;-6.536;2023-04-05T06:01:47;100949.97;;;14.11;100.00
64354;BME280;50681;53.334;-6.536;2023-04-05T06:04:15;100935.19;;;13.89;100.00
64354;BME280;50681;53.334;-6.536;2023-04-05T06:06:41;100938.59;;;14.09;100.00
64354;BME280;50681;53.334;-6.536;2023-04-05T06:09:09;100951.16;;;13.77;100.00
64354;BME280;50681;53.334;-6.536;2023-04-05T06:11:34;100936.69;;;13.95;100.00
64354;BME280;50681;53.334;-6.536;2023-04-05T06:14:00;100903.34;;;15.46;100.00
64354;BME280;50681;53.334;-6.536;2023-04-05T06:16:26;100920.19;;;14.06;100.00
64354;BME280;50681;53.334;-6.536;2023-04-05T06:18:51;100911.66;;;13.99;100.00
64354;BME280;50681;53.334;-6.536;2023-04-05T06:21:19;100908.44;;;13.96;100.00
64354;BME280;50681;53.334;-6.536;2023-04-05T06:23:45;100903.72;;;13.88;100.00
64354;BME280;50681;53.334;-6.536;2023-04-05T06:26:18;100908.72;;;14.09;100.00
64354;BME280;50681;53.334;-6.536;2023-04-05T06:28:47;100919.66;;;14.32;100.00
64354;BME280;50681;53.334;-6.536;2023-04-05T06:31:13;100914.56;;;14.16;100.00
64354;BME280;50681;53.334;-6.536;2023-04-05T06:33:42;100911.41;;;14.23;100.00
64354;BME280;50681;53.334;-6.536;2023-04-05T06:36:09;100923.03;;;14.37;100.00
64354;BME280;50681;53.334;-6.536;2023-04-05T06:38:34;100915.72;;;14.38;100.00
64354;BME280;50681;53.334;-6.536;2023-04-05T06:41:01;100914.28;;;14.40;100.00
64354;BME280;50681;53.334;-6.536;2023-04-05T06:43:26;100913.94;;;14.19;100.00
64354;BME280;50681;53.334;-6.536;2023-04-05T06:45:54;100895.84;;;14.15;100.00
64354;BME280;50681;53.334;-6.536;2023-04-05T06:48:20;100895.22;;;14.32;100.00
64354;BME280;50681;53.334;-6.536;2023-04-05T06:50:46;100910.84;;;14.49;100.00
64354;BME280;50681;53.334;-6.536;2023-04-05T06:53:11;100889.34;;;14.38;100.00
64354;BME280;50681;53.334;-6.536;2023-04-05T06:55:39;100913.56;;;14.49;100.00
64354;BME280;50681;53.334;-6.536;2023-04-05T06:58:04;100899.94;;;14.26;100.00
64354;BME280;50681;53.334;-6.536;2023-04-05T07:00:30;100913.66;;;14.58;100.00
64354;BME280;50681;53.334;-6.536;2023-04-05T07:02:55;100899.56;;;14.55;100.00
64354;BME280;50681;53.334;-6.536;2023-04-05T07:05:21;100921.97;;;14.75;100.00
64354;BME280;50681;53.334;-6.536;2023-04-05T07:07:47;100922.59;;;14.58;100.00
64354;BME280;50681;53.334;-6.536;2023-04-05T07:10:13;100920.34;;;14.74;100.00
64354;BME280;50681;53.334;-6.536;2023-04-05T07:12:41;100906.88;;;14.92;100.00
64354;BME280;50681;53.334;-6.536;2023-04-05T07:15:09;100905.25;;;15.13;100.00
64354;BME280;50681;53.334;-6.536;2023-04-05T07:17:34;100893.28;;;14.69;100.00
64354;BME280;50681;53.334;-6.536;2023-04-05T07:20:00;100899.47;;;14.83;100.00
64354;BME280;50681;53.334;-6.536;2023-04-05T07:22:26;100905.03;;;15.01;100.00
64354;BME280;50681;53.334;-6.536;2023-04-05T07:24:51;100914.66;;;15.07;100.00
64354;BME280;50681;53.334;-6.536;2023-04-05T07:27:17;100909.72;;;15.09;100.00
64354;BME280;50681;53.334;-6.536;2023-04-05T07:29:42;100900.00;;;14.94;100.00
64354;BME280;50681;53.334;-6.536;2023-04-05T07:32:09;100886.75;;;14.93;100.00
64354;BME280;50681;53.334;-6.536;2023-04-05T07:34:34;100892.06;;;14.75;100.00
64354;BME280;50681;53.334;-6.536;2023-04-05T07:37:00;100910.63;;;15.05;100.00
64354;BME280;50681;53.334;-6.536;2023-04-05T07:39:26;100910.94;;;15.26;100.00
64354;BME280;50681;53.334;-6.536;2023-04-05T07:41:52;100905.19;;;15.05;100.00
64354;BME280;50681;53.334;-6.536;2023-04-05T07:44:17;100888.19;;;15.22;100.00
64354;BME280;50681;53.334;-6.536;2023-04-05T07:46:43;100903.03;;;15.16;100.00
64354;BME280;50681;53.334;-6.536;2023-04-05T07:49:10;100897.19;;;15.31;100.00
64354;BME280;50681;53.334;-6.536;2023-04-05T07:51:37;100872.75;;;15.08;100.00
64354;BME280;50681;53.334;-6.536;2023-04-05T07:54:03;100874.19;;;15.37;100.00
64354;BME280;50681;53.334;-6.536;2023-04-05T07:56:32;100892.72;;;15.35;100.00
64354;BME280;50681;53.334;-6.536;2023-04-05T07:58:57;100884.50;;;15.18;100.00
64354;BME280;50681;53.334;-6.536;2023-04-05T08:03:53;100884.94;;;15.51;100.00
64354;BME280;50681;53.334;-6.536;2023-04-05T08:06:22;100887.53;;;15.56;100.00
64354;BME280;50681;53.334;-6.536;2023-04-05T08:08:50;100872.84;;;15.66;100.00
64354;BME280;50681;53.334;-6.536;2023-04-05T08:11:16;100892.53;;;15.63;100.00
64354;BME280;50681;53.334;-6.536;2023-04-05T08:13:41;100881.09;;;15.43;100.00
64354;BME280;50681;53.334;-6.536;2023-04-05T08:16:08;100887.66;;;15.42;100.00
64354;BME280;50681;53.334;-6.536;2023-04-05T08:18:34;100891.25;;;15.69;100.00
64354;BME280;50681;53.334;-6.536;2023-04-05T08:21:00;100882.91;;;15.57;100.00
64354;BME280;50681;53.334;-6.536;2023-04-05T08:23:25;100889.31;;;15.61;100.00
64354;BME280;50681;53.334;-6.536;2023-04-05T08:25:52;100888.91;;;15.85;100.00
64354;BME280;50681;53.334;-6.536;2023-04-05T08:28:17;100876.47;;;15.53;100.00
64354;BME280;50681;53.334;-6.536;2023-04-05T08:30:42;100869.59;;;15.55;100.00
64354;BME280;50681;53.334;-6.536;2023-04-05T08:33:09;100887.81;;;15.95;100.00
64354;BME280;50681;53.334;-6.536;2023-04-05T08:35:35;100885.41;;;16.02;100.00
64354;BME280;50681;53.334;-6.536;2023-04-05T08:38:02;100892.66;;;16.16;100.00
64354;BME280;50681;53.334;-6.536;2023-04-05T08:40:46;100871.03;;;16.20;100.00
64354;BME280;50681;53.334;-6.536;2023-04-05T08:43:24;100869.91;;;16.38;100.00
64354;BME280;50681;53.334;-6.536;2023-04-05T08:45:52;100883.38;;;16.79;100.00
64354;BME280;50681;53.334;-6.536;2023-04-05T08:48:20;100888.81;;;16.70;100.00
64354;BME280;50681;53.334;-6.536;2023-04-05T08:50:52;100865.06;;;16.79;100.00
64354;BME280;50681;53.334;-6.536;2023-04-05T08:53:18;100871.00;;;16.64;100.00
64354;BME280;50681;53.334;-6.536;2023-04-05T08:55:48;100872.22;;;17.19;100.00
64354;BME280;50681;53.334;-6.536;2023-04-05T08:58:15;100871.78;;;16.90;100.00
64354;BME280;50681;53.334;-6.536;2023-04-05T09:00:42;100858.81;;;16.70;100.00
64354;BME280;50681;53.334;-6.536;2023-04-05T09:03:13;100879.59;;;17.27;100.00
64354;BME280;50681;53.334;-6.536;2023-04-05T09:05:45;100877.16;;;17.26;100.00
64354;BME280;50681;53.334;-6.536;2023-04-05T09:08:12;100887.47;;;17.11;100.00
64354;BME280;50681;53.334;-6.536;2023-04-05T09:10:39;100886.69;;;17.11;100.00
64354;BME280;50681;53.334;-6.536;2023-04-05T09:13:04;100861.19;;;16.98;100.00
64354;BME280;50681;53.334;-6.536;2023-04-05T09:15:30;100885.16;;;17.31;100.00
64354;BME280;50681;53.334;-6.536;2023-04-05T09:17:56;100875.38;;;17.30;100.00
64354;BME280;50681;53.334;-6.536;2023-04-05T09:20:22;100892.22;;;17.32;100.00
64354;BME280;50681;53.334;-6.536;2023-04-05T09:22:47;100881.59;;;17.00;100.00
64354;BME280;50681;53.334;-6.536;2023-04-05T09:28:04;100881.72;;;17.13;100.00
64354;BME280;50681;53.334;-6.536;2023-04-05T09:30:32;100889.84;;;17.30;100.00
64354;BME280;50681;53.334;-6.536;2023-04-05T09:32:58;100881.03;;;17.25;100.00
64354;BME280;50681;53.334;-6.536;2023-04-05T09:35:25;100882.78;;;17.29;100.00
64354;BME280;50681;53.334;-6.536;2023-04-05T09:37:55;100898.28;;;17.46;100.00
64354;BME280;50681;53.334;-6.536;2023-04-05T09:40:22;100885.38;;;17.56;100.00
64354;BME280;50681;53.334;-6.536;2023-04-05T09:42:47;100888.31;;;17.81;100.00
64354;BME280;50681;53.334;-6.536;2023-04-05T09:45:29;100897.88;;;17.96;100.00
64354;BME280;50681;53.334;-6.536;2023-04-05T09:47:56;100889.03;;;17.69;100.00
64354;BME280;50681;53.334;-6.536;2023-04-05T09:50:22;100903.38;;;17.57;100.00
64354;BME280;50681;53.334;-6.536;2023-04-05T09:52:48;100881.78;;;17.43;100.00
64354;BME280;50681;53.334;-6.536;2023-04-05T09:55:27;100883.50;;;17.77;100.00
64354;BME280;50681;53.334;-6.536;2023-04-05T09:57:52;100885.66;;;17.93;100.00
64354;BME280;50681;53.334;-6.536;2023-04-05T10:00:21;100898.81;;;18.30;100.00
64354;BME280;50681;53.334;-6.536;2023-04-05T10:02:51;100871.06;;;18.19;100.00
64354;BME280;50681;53.334;-6.536;2023-04-05T10:05:43;100905.44;;;18.62;100.00
64354;BME280;50681;53.334;-6.536;2023-04-05T10:08:10;100869.22;;;18.65;100.00
64354;BME280;50681;53.334;-6.536;2023-04-05T10:10:45;100876.97;;;18.63;100.00
64354;BME280;50681;53.334;-6.536;2023-04-05T10:13:11;100883.88;;;18.82;100.00
64354;BME280;50681;53.334;-6.536;2023-04-05T10:15:37;100875.88;;;18.77;100.00
64354;BME280;50681;53.334;-6.536;2023-04-05T10:18:09;100898.63;;;19.02;100.00
64354;BME280;50681;53.334;-6.536;2023-04-05T10:20:38;100881.59;;;18.84;100.00
64354;BME280;50681;53.334;-6.536;2023-04-05T10:23:14;100897.06;;;18.80;100.00
64354;BME280;50681;53.334;-6.536;2023-04-05T10:28:33;100873.00;;;19.07;100.00
64354;BME280;50681;53.334;-6.536;2023-04-05T10:31:24;100875.66;;;18.82;100.00
64354;BME280;50681;53.334;-6.536;2023-04-05T10:36:56;100894.03;;;19.28;100.00
64354;BME280;50681;53.334;-6.536;2023-04-05T10:39:33;100875.63;;;19.16;100.00
64354;BME280;50681;53.334;-6.536;2023-04-05T10:42:20;100881.44;;;19.02;100.00
64354;BME280;50681;53.334;-6.536;2023-04-05T10:44:51;100884.53;;;18.79;100.00
64354;BME280;50681;53.334;-6.536;2023-04-05T10:47:27;100902.66;;;18.84;100.00
64354;BME280;50681;53.334;-6.536;2023-04-05T10:49:59;100881.44;;;19.02;100.00
64354;BME280;50681;53.334;-6.536;2023-04-05T10:52:27;100868.16;;;18.91;100.00
64354;BME280;50681;53.334;-6.536;2023-04-05T10:54:56;100885.56;;;19.20;100.00
64354;BME280;50681;53.334;-6.536;2023-04-05T10:57:24;100875.75;;;19.07;100.00
64354;BME280;50681;53.334;-6.536;2023-04-05T10:59:53;100893.56;;;19.13;100.00
64354;BME280;50681;53.334;-6.536;2023-04-05T11:02:20;100864.03;;;18.85;100.00
64354;BME280;50681;53.334;-6.536;2023-04-05T11:04:52;100889.69;;;19.14;100.00
64354;BME280;50681;53.334;-6.536;2023-04-05T11:07:21;100862.75;;;19.16;100.00
64354;BME280;50681;53.334;-6.536;2023-04-05T11:09:59;100893.13;;;19.48;100.00
64354;BME280;50681;53.334;-6.536;2023-04-05T11:21:04;100879.38;;;18.99;100.00
64354;BME280;50681;53.334;-6.536;2023-04-05T11:23:31;100877.66;;;19.06;100.00
64354;BME280;50681;53.334;-6.536;2023-04-05T11:26:04;100855.88;;;18.98;100.00
64354;BME280;50681;53.334;-6.536;2023-04-05T11:28:38;100862.75;;;19.04;100.00
64354;BME280;50681;53.334;-6.536;2023-04-05T11:31:15;100861.50;;;19.14;100.00
64354;BME280;50681;53.334;-6.536;2023-04-05T11:34:17;100868.47;;;19.23;100.00
64354;BME280;50681;53.334;-6.536;2023-04-05T11:36:48;100867.41;;;19.16;100.00
64354;BME280;50681;53.334;-6.536;2023-04-05T11:41:47;100865.28;;;19.59;100.00
64354;BME280;50681;53.334;-6.536;2023-04-05T11:44:15;100836.53;;;19.40;100.00
64354;BME280;50681;53.334;-6.536;2023-04-05T11:46:42;100863.25;;;19.56;100.00
64354;BME280;50681;53.334;-6.536;2023-04-05T11:49:14;100856.94;;;19.55;100.00
64354;BME280;50681;53.334;-6.536;2023-04-05T11:51:43;100852.38;;;19.59;100.00
64354;BME280;50681;53.334;-6.536;2023-04-05T11:54:13;100845.88;;;19.76;100.00
64354;BME280;50681;53.334;-6.536;2023-04-05T11:56:38;100851.13;;;19.81;100.00
64354;BME280;50681;53.334;-6.536;2023-04-05T11:59:03;100837.56;;;19.48;100.00
64354;BME280;50681;53.334;-6.536;2023-04-05T12:01:29;100828.31;;;19.65;100.00
64354;BME280;50681;53.334;-6.536;2023-04-05T12:03:55;100801.41;;;19.05;100.00
64354;BME280;50681;53.334;-6.536;2023-04-05T12:06:22;100844.75;;;19.52;100.00
64354;BME280;50681;53.334;-6.536;2023-04-05T12:08:49;100827.75;;;19.34;100.00
64354;BME280;50681;53.334;-6.536;2023-04-05T12:11:15;100825.81;;;19.60;100.00
64354;BME280;50681;53.334;-6.536;2023-04-05T12:13:41;100819.06;;;19.32;100.00
64354;BME280;50681;53.334;-6.536;2023-04-05T12:18:13;100815.09;;;19.54;100.00
64354;BME280;50681;53.334;-6.536;2023-04-05T12:20:40;100815.53;;;19.69;100.00
64354;BME280;50681;53.334;-6.536;2023-04-05T12:23:05;100811.41;;;19.75;100.00
64354;BME280;50681;53.334;-6.536;2023-04-05T12:25:32;100790.47;;;19.83;100.00
64354;BME280;50681;53.334;-6.536;2023-04-05T12:28:03;100800.13;;;20.18;100.00
64354;BME280;50681;53.334;-6.536;2023-04-05T12:30:32;100779.78;;;20.19;100.00
64354;BME280;50681;53.334;-6.536;2023-04-05T12:33:11;100787.44;;;20.41;100.00
64354;BME280;50681;53.334;-6.536;2023-04-05T12:35:38;100797.03;;;20.64;100.00
64354;BME280;50681;53.334;-6.536;2023-04-05T12:38:06;100763.19;;;19.99;100.00
64354;BME280;50681;53.334;-6.536;2023-04-05T12:40:35;100805.94;;;20.45;100.00
64354;BME280;50681;53.334;-6.536;2023-04-05T12:43:10;100784.16;;;20.07;100.00
64354;BME280;50681;53.334;-6.536;2023-04-05T12:45:44;100815.63;;;20.26;100.00
64354;BME280;50681;53.334;-6.536;2023-04-05T12:48:21;100820.88;;;20.47;100.00
64354;BME280;50681;53.334;-6.536;2023-04-05T12:50:47;100821.56;;;20.28;100.00
64354;BME280;50681;53.334;-6.536;2023-04-05T12:53:23;100817.34;;;20.18;100.00
64354;BME280;50681;53.334;-6.536;2023-04-05T12:55:53;100813.25;;;20.12;100.00
64354;BME280;50681;53.334;-6.536;2023-04-05T12:58:33;100793.28;;;20.40;100.00
64354;BME280;50681;53.334;-6.536;2023-04-05T13:00:59;100788.53;;;20.53;100.00
64354;BME280;50681;53.334;-6.536;2023-04-05T13:03:26;100814.81;;;20.54;100.00
64354;BME280;50681;53.334;-6.536;2023-04-05T13:05:54;100803.66;;;20.47;100.00
64354;BME280;50681;53.334;-6.536;2023-04-05T13:08:20;100781.13;;;20.25;100.00
64354;BME280;50681;53.334;-6.536;2023-04-05T13:10:49;100790.31;;;20.17;100.00